Aérodrome :
LOGIN :

S'inscrire | Disclaimer

   EN    FR    IT 

 










Légende :    VFR   VFR Marginal   IFR   IFR Intensif   IFR Très Intensif
Visi : 
Plafond : 
>= 8 km
>= 3000ft
5 à 8 km
1000 à 3000 ft
1500m à 5 km
500 à 1000 ft
800 à 1500m
200 à 500 ft
< 800m
< 200 ft
Symboles :   Orages  Brouillard  Fortes neiges  Fortes précipitations  Vent > 20 kt
SIGMETs :   Divers  Orages  Givrage  Turbulence  Onde Orograph.  Cendres Volcan.






- Altitude de l'aérodrome : 20 ft


EBFN - Koksijde

DERNIER METAR :
  • 101055Z AUTO 07009KT 7000 -RA OVC009/// 07/06 Q1012 GRN

METARs EXPIRÉS :
  • 101025Z AUTO 08010KT 6000 -RA OVC010/// 07/06 Q1012 GRN
  • 100955Z AUTO 07008KT 9000 -RA OVC012/// 07/05 Q1012 GRN
  • 100925Z AUTO 07009KT 8000 -RA OVC013/// 07/05 Q1012 GRN
  • 100855Z AUTO 07009KT 9999 -DZ BKN013/// BKN037/// 07/04 Q1013 GRN
  • 100841Z AUTO 08009KT 9999 SCT013/// BKN042/// 07/04 Q1013 GRN

TAF TAF EBFN
Valide du 10 à 10h jusqu'au 10 à 19h UTC


100841Z 1010/1019 05012KT 4000 -RA BKN010 BKN020
TEMPO 1010/1016 2500 RA SCT005 SCT008 BKN012 BY EBWM



MET'MAP, la Météo Aéronautique d'un coup d'oeil ! - Copyright ORBIFLY Décembre 2007 - Disclaimer

ORBIFLY MET'MAP TEAM :

Programmation & Développement : Alexandra Zaïnal
Sur une idée originale de : Baudouin d'Aumeries
Assistance à la programmation : Marc-Olivier Méhu
Soutien technique & logistique : Manuel Goepfert

Contact : metmap@orbifly.com




SOURCES & CREDITS :

   NOAA